createdAt,value
2018-03-08T00:00:05.535Z,2
2018-03-08T00:05:10.898Z,2
2018-03-08T00:10:17.924Z,2
2018-03-08T00:15:02.909Z,2
2018-03-08T00:20:05.834Z,2
2018-03-08T00:25:07.694Z,2
2018-03-08T00:30:05.558Z,1.9
2018-03-08T00:35:03.301Z,1.9
2018-03-08T00:40:03.087Z,1.9
2018-03-08T00:45:02.380Z,1.9
2018-03-08T00:50:02.656Z,1.9
2018-03-08T00:55:05.457Z,1.9
2018-03-08T01:00:02.583Z,1.9
2018-03-08T01:05:05.434Z,1.8
2018-03-08T01:10:03.167Z,1.8
2018-03-08T01:15:02.417Z,1.9
2018-03-08T01:20:05.293Z,1.9
2018-03-08T01:25:05.596Z,1.9
2018-03-08T01:30:33.252Z,1.9
2018-03-08T01:35:02.543Z,1.9
2018-03-08T01:40:26.086Z,1.9
2018-03-08T01:45:02.389Z,1.9
2018-03-08T01:50:17.930Z,2
2018-03-08T01:55:03.097Z,2
2018-03-08T02:00:05.917Z,2
2018-03-08T02:05:02.693Z,2
2018-03-08T02:10:05.076Z,2.1
2018-03-08T02:15:20.504Z,2
2018-03-08T02:20:02.990Z,2.1
2018-03-08T02:25:18.333Z,2
2018-03-08T02:30:02.733Z,2
2018-03-08T02:35:05.616Z,1.8
2018-03-08T02:40:10.014Z,1.6
2018-03-08T02:45:05.226Z,1.7
2018-03-08T02:50:25.360Z,1.7
2018-03-08T02:55:05.185Z,1.7
2018-03-08T03:00:02.520Z,1.7
2018-03-08T03:05:12.962Z,1.8
2018-03-08T03:10:05.276Z,1.8
2018-03-08T03:15:05.569Z,1.9
2018-03-08T03:20:05.485Z,1.9
2018-03-08T03:25:07.570Z,1.9
2018-03-08T03:30:10.780Z,1.8
2018-03-08T03:35:02.673Z,1.8
2018-03-08T03:40:02.809Z,1.8
2018-03-08T03:45:16.046Z,1.6
2018-03-08T03:50:02.662Z,1.6
2018-03-08T03:55:03.274Z,1.5
2018-03-08T04:00:02.859Z,1.6
2018-03-08T04:05:02.456Z,1.6
2018-03-08T04:10:02.545Z,1.7
2018-03-08T04:15:03.225Z,1.7
2018-03-08T04:20:02.936Z,1.8
2018-03-08T04:25:05.014Z,1.8
2018-03-08T04:30:17.826Z,1.9
2018-03-08T04:35:10.747Z,1.9
2018-03-08T04:40:02.814Z,1.9
2018-03-08T04:45:05.002Z,2
2018-03-08T04:50:02.747Z,2
2018-03-08T04:55:20.905Z,2.2
2018-03-08T05:00:02.471Z,2.2
2018-03-08T05:05:03.029Z,2.2
2018-03-08T05:10:03.255Z,2.3
2018-03-08T05:15:10.268Z,2.4
2018-03-08T05:20:05.475Z,2.4
2018-03-08T05:25:15.186Z,2.4
2018-03-08T05:30:10.435Z,2.4
2018-03-08T05:35:05.942Z,2.5
2018-03-08T05:40:05.570Z,2.6
2018-03-08T05:45:22.803Z,2.7
2018-03-08T05:50:07.474Z,2.9
2018-03-08T05:55:03.054Z,2.9
2018-03-08T06:00:10.261Z,3.1
2018-03-08T06:05:03.250Z,3.2
2018-03-08T06:10:10.970Z,3.3
2018-03-08T06:15:10.595Z,3.4
2018-03-08T06:20:21.024Z,3.5
2018-03-08T06:25:13.050Z,3.6
2018-03-08T06:30:12.860Z,3.7
2018-03-08T06:35:03.365Z,3.7
2018-03-08T06:40:02.485Z,3.8
2018-03-08T06:45:03.185Z,3.9
2018-03-08T06:50:02.885Z,3.9
2018-03-08T06:55:03.405Z,4
2018-03-08T07:00:05.583Z,4.1
2018-03-08T07:05:02.649Z,4.1
2018-03-08T07:10:05.277Z,4.3
2018-03-08T07:15:07.533Z,4.3
2018-03-08T07:20:08.351Z,4.3
2018-03-08T07:25:02.893Z,4.3
2018-03-08T07:30:05.082Z,4.4
2018-03-08T07:35:03.186Z,4.4
2018-03-08T07:40:05.833Z,4.4
2018-03-08T07:45:05.406Z,4.4
2018-03-08T07:50:02.989Z,4.4
2018-03-08T07:55:17.833Z,4.4
2018-03-08T08:00:10.020Z,4.4
2018-03-08T08:05:03.233Z,4.4
2018-03-08T08:10:03.308Z,4.4
2018-03-08T08:15:02.870Z,4.4
2018-03-08T08:20:05.074Z,4.4
2018-03-08T08:25:08.312Z,4.4
2018-03-08T08:30:08.118Z,4.4
2018-03-08T08:35:05.212Z,4.4
2018-03-08T08:40:05.825Z,4.4
2018-03-08T08:45:02.859Z,4.3
2018-03-08T08:50:02.479Z,4.3
2018-03-08T08:55:08.129Z,4.3
2018-03-08T09:00:02.725Z,4.3
2018-03-08T09:05:05.894Z,4.1
2018-03-08T09:10:05.524Z,4.1
2018-03-08T09:15:07.692Z,4.1
2018-03-08T09:20:05.865Z,4.1
2018-03-08T09:25:02.933Z,4.1
2018-03-08T09:30:05.173Z,4.1
2018-03-08T09:35:05.819Z,4.2
2018-03-08T09:40:18.333Z,4.2
2018-03-08T09:45:02.444Z,4.2
2018-03-08T09:50:03.088Z,4.2
2018-03-08T09:55:02.665Z,4.2
2018-03-08T10:00:08.349Z,4.1
2018-03-08T10:05:07.911Z,4.1
2018-03-08T10:10:02.965Z,4.1
2018-03-08T10:15:10.200Z,4.2
2018-03-08T10:20:07.992Z,4.3
2018-03-08T10:25:15.135Z,4.4
2018-03-08T10:30:12.966Z,4.5
2018-03-08T10:35:07.503Z,4.6
2018-03-08T10:40:05.145Z,4.7
2018-03-08T10:45:08.362Z,4.8
2018-03-08T10:50:05.500Z,5
2018-03-08T10:55:05.203Z,5.2
2018-03-08T11:00:05.321Z,5.4
2018-03-08T11:05:20.135Z,5.7
2018-03-08T11:10:10.866Z,5.9
2018-03-08T11:15:12.989Z,6.1
2018-03-08T11:20:07.778Z,6.4
2018-03-08T11:25:08.328Z,6.5
2018-03-08T11:30:02.942Z,6.5
2018-03-08T11:35:05.041Z,7.1
2018-03-08T11:40:08.213Z,7.1
2018-03-08T11:45:05.262Z,7.2
2018-03-08T11:50:07.944Z,7.4
2018-03-08T11:55:07.600Z,7.7
2018-03-08T12:00:13.359Z,7.6
2018-03-08T12:05:33.187Z,7.8
2018-03-08T12:10:03.317Z,7.8
2018-03-08T12:15:05.468Z,8.1
2018-03-08T12:20:20.820Z,8.2
2018-03-08T12:25:07.822Z,8.4
2018-03-08T12:30:07.521Z,8.4
2018-03-08T12:35:03.017Z,8.4
2018-03-08T12:40:13.326Z,8.6
2018-03-08T12:45:05.364Z,8.4
2018-03-08T12:50:03.089Z,8.3
2018-03-08T12:55:17.878Z,9.1
2018-03-08T13:00:10.079Z,9.4
2018-03-08T13:05:08.362Z,9.7
2018-03-08T13:15:02.977Z,10.2
2018-03-08T13:20:02.792Z,10
2018-03-08T13:25:10.051Z,10
2018-03-08T13:30:02.679Z,10
2018-03-08T13:35:03.323Z,9.8
2018-03-08T13:40:05.144Z,9.7
2018-03-08T13:45:03.218Z,9.7
2018-03-08T13:50:23.087Z,11.2
2018-03-08T13:55:05.185Z,11.9
2018-03-08T14:00:20.596Z,11.8
2018-03-08T14:05:02.596Z,11.8
2018-03-08T14:10:05.325Z,12.2
2018-03-08T14:15:02.496Z,12.2
2018-03-08T14:20:15.994Z,12
2018-03-08T14:25:07.939Z,13.2
2018-03-08T14:30:20.315Z,13
2018-03-08T14:35:05.868Z,13
2018-03-08T14:40:02.964Z,13
2018-03-08T14:45:05.231Z,12.2
2018-03-08T14:50:10.501Z,11.9
2018-03-08T14:55:05.075Z,12.1
2018-03-08T15:00:05.237Z,12.5
2018-03-08T15:05:08.423Z,13
2018-03-08T15:10:20.286Z,12.3
2018-03-08T15:15:03.264Z,12.3
2018-03-08T15:20:02.985Z,11.7
2018-03-08T15:25:02.725Z,11.6
2018-03-08T15:30:02.421Z,12
2018-03-08T15:35:08.130Z,11.7
2018-03-08T15:40:05.935Z,11.3
2018-03-08T15:45:08.074Z,11.6
2018-03-08T15:50:07.783Z,12.9
2018-03-08T15:55:07.501Z,12.6
2018-03-08T16:00:20.881Z,11.7
2018-03-08T16:05:07.924Z,10.9
2018-03-08T16:10:18.225Z,10.3
2018-03-08T16:15:05.236Z,9.9
2018-03-08T16:20:13.306Z,9.6
2018-03-08T16:25:02.764Z,9.6
2018-03-08T16:30:03.384Z,9.4
2018-03-08T16:35:03.234Z,9.3
2018-03-08T16:40:08.469Z,9
2018-03-08T16:45:05.534Z,8.8
2018-03-08T16:50:15.811Z,8.7
2018-03-08T16:55:17.987Z,8.5
2018-03-08T17:00:10.241Z,8.4
2018-03-08T17:05:08.458Z,8.3
2018-03-08T17:10:02.644Z,8.3
2018-03-08T17:15:10.887Z,8.1
2018-03-08T17:20:05.111Z,8
2018-03-08T17:25:03.294Z,8
2018-03-08T17:30:03.247Z,7.8
2018-03-08T17:35:05.442Z,7.5
2018-03-08T17:40:10.149Z,7.3
2018-03-08T17:45:13.262Z,7.2
2018-03-08T17:50:18.080Z,7
2018-03-08T17:55:25.247Z,6.8
2018-03-08T18:00:05.363Z,6.7
2018-03-08T18:05:28.671Z,6.6
2018-03-08T18:10:07.726Z,6.5
2018-03-08T18:15:10.808Z,6.4
2018-03-08T18:20:32.770Z,6.3
2018-03-08T18:25:10.874Z,6.2
2018-03-08T18:30:10.003Z,6.1
2018-03-08T18:35:02.978Z,6.1
2018-03-08T18:40:08.020Z,5.9
2018-03-08T18:45:02.483Z,5.9
2018-03-08T18:50:13.210Z,5.8
2018-03-08T18:55:05.503Z,5.8
2018-03-08T19:00:08.118Z,5.7
2018-03-08T19:05:02.613Z,5.7
2018-03-08T19:10:02.971Z,5.6
2018-03-08T19:15:05.284Z,5.5
2018-03-08T19:20:15.597Z,5.5
2018-03-08T19:25:10.333Z,5.4
2018-03-08T19:30:02.880Z,5.4
2018-03-08T19:35:05.050Z,5.5
2018-03-08T19:40:05.624Z,5.5
2018-03-08T19:45:05.709Z,5.5
2018-03-08T19:50:03.371Z,5.5
2018-03-08T19:55:05.497Z,5.6
2018-03-08T20:00:08.432Z,5.6
2018-03-08T20:05:20.777Z,5.6
2018-03-08T20:10:02.759Z,5.5
2018-03-08T20:15:13.394Z,5.6
2018-03-08T20:20:08.082Z,5.6
2018-03-08T20:25:07.576Z,5.6
2018-03-08T20:30:03.227Z,5.6
2018-03-08T20:35:17.888Z,5.7
2018-03-08T20:40:12.862Z,5.7
2018-03-08T20:45:03.302Z,5.7
2018-03-08T20:50:02.773Z,5.8
2018-03-08T20:55:05.799Z,5.9
2018-03-08T21:00:10.869Z,5.9
2018-03-08T21:05:05.270Z,6
2018-03-08T21:10:07.470Z,6
2018-03-08T21:15:05.354Z,6
2018-03-08T21:20:03.116Z,6
2018-03-08T21:25:03.247Z,6
2018-03-08T21:30:05.404Z,5.9
2018-03-08T21:35:03.210Z,5.9
2018-03-08T21:40:02.891Z,5.9
2018-03-08T21:45:03.329Z,5.8
2018-03-08T21:50:05.180Z,5.7
2018-03-08T21:55:02.951Z,5.6
2018-03-08T22:00:03.275Z,5.6
2018-03-08T22:05:02.818Z,5.6
2018-03-08T22:10:15.170Z,5.3
2018-03-08T22:15:02.850Z,5.3
2018-03-08T22:20:05.775Z,5.2
2018-03-08T22:25:10.125Z,5.2
2018-03-08T22:30:04.956Z,5.2
2018-03-08T22:35:05.345Z,5.1
2018-03-08T22:40:03.012Z,5.1
2018-03-08T22:45:04.898Z,4.6
2018-03-08T22:50:03.284Z,4.5
2018-03-08T22:55:02.474Z,4.2
2018-03-08T23:00:02.781Z,4.1
2018-03-08T23:05:03.063Z,4
2018-03-08T23:10:10.332Z,3.9
2018-03-08T23:15:03.050Z,3.9
2018-03-08T23:20:02.375Z,3.9
2018-03-08T23:25:05.219Z,3.8
2018-03-08T23:30:02.521Z,3.8
2018-03-08T23:35:02.804Z,3.7
2018-03-08T23:40:05.088Z,3.5
2018-03-08T23:45:02.862Z,3.5
2018-03-08T23:50:03.136Z,3.4
2018-03-08T23:55:07.484Z,3.2
